Flimby, United Kingdom
Current Conditions -  °F | °C
As of 5:20 PM on Sunday 23 Nov 2014 (Local Time) from EGNS Reporting Station
Few Clouds Few Clouds  
Wind Chill: 41°   Ceiling: Unl
Heat Index: 46°   Visibility: 6mi
Dew Point: 36°   Wind: 10mph
Humidity: 66%   Direction: 300°WNW
Pressure: 30.09"   Gusts: NA
Location:  54.69°N, 3.52°W
Report Text: EGNS 231720Z 30009KT 270V330 9999 FEW028 08/02 Q1019 NOSIG
Loading
Personal Weather Stations






























Interactive Weather Map New forecast layout! Learn more

10-Day Weather Forecast

Advertisements
Track Severe Weather on mobile